createdAt,value
2018-11-04T00:01:10.813Z,27.07
2018-11-04T00:03:39.384Z,28.13
2018-11-04T00:06:07.832Z,25.30
2018-11-04T00:08:36.312Z,27.93
2018-11-04T00:11:05.210Z,26.73
2018-11-04T00:13:33.710Z,28.20
2018-11-04T00:16:02.195Z,28.70
2018-11-04T00:18:30.592Z,25.50
2018-11-04T00:20:58.998Z,24.93
2018-11-04T00:23:27.485Z,22.53
2018-11-04T00:25:55.905Z,26.07
2018-11-04T00:28:24.349Z,24.80
2018-11-04T00:30:52.782Z,26.43
2018-11-04T00:33:21.206Z,29.80
2018-11-04T00:35:50.256Z,28.40
2018-11-04T00:38:18.665Z,28.00
2018-11-04T00:40:47.148Z,23.37
2018-11-04T00:43:15.557Z,30.00
2018-11-04T00:45:44.057Z,27.63
2018-11-04T00:48:12.556Z,25.00
2018-11-04T00:50:41.060Z,25.07
2018-11-04T00:53:09.449Z,27.03
2018-11-04T00:55:37.988Z,27.23
2018-11-04T00:58:06.508Z,27.43
2018-11-04T01:00:35.788Z,38.03
2018-11-04T01:03:04.376Z,36.83
2018-11-04T01:05:32.785Z,36.13
2018-11-04T01:08:01.194Z,38.60
2018-11-04T01:10:29.720Z,38.67
2018-11-04T01:12:58.258Z,37.73
2018-11-04T01:15:26.804Z,43.17
2018-11-04T01:17:55.325Z,36.27
2018-11-04T01:20:23.808Z,39.50
2018-11-04T01:22:52.217Z,40.47
2018-11-04T01:25:20.799Z,38.20
2018-11-04T01:27:49.306Z,39.73
2018-11-04T01:30:17.714Z,38.23
2018-11-04T01:32:46.154Z,36.73
2018-11-04T01:35:14.643Z,34.40
2018-11-04T01:37:43.492Z,36.77
2018-11-04T01:40:11.883Z,36.23
2018-11-04T01:42:40.402Z,36.60
2018-11-04T01:45:10.037Z,39.80
2018-11-04T01:47:38.498Z,36.80
2018-11-04T01:50:09.049Z,32.73
2018-11-04T01:52:37.465Z,32.20
2018-11-04T01:55:06.937Z,33.13
2018-11-04T01:57:35.636Z,33.67
2018-11-04T02:00:05.960Z,33.63
2018-11-04T02:02:34.501Z,30.97
2018-11-04T02:05:02.888Z,32.60
2018-11-04T02:07:31.770Z,32.47
2018-11-04T02:10:00.259Z,39.87
2018-11-04T02:12:28.835Z,30.10
2018-11-04T02:14:57.714Z,28.97
2018-11-04T02:17:26.211Z,33.63
2018-11-04T02:19:54.656Z,36.73
2018-11-04T02:22:23.009Z,30.10
2018-11-04T02:24:51.440Z,30.70
2018-11-04T02:27:19.843Z,31.40
2018-11-04T02:29:48.332Z,32.10
2018-11-04T02:32:16.793Z,33.23
2018-11-04T02:34:45.206Z,29.53
2018-11-04T02:37:13.597Z,32.90
2018-11-04T02:39:41.966Z,30.43
2018-11-04T02:42:10.395Z,32.53
2018-11-04T02:44:38.926Z,29.20
2018-11-04T02:47:07.463Z,30.10
2018-11-04T02:49:35.858Z,33.27
2018-11-04T02:52:04.646Z,33.87
2018-11-04T02:54:33.032Z,38.83
2018-11-04T02:57:01.497Z,40.23
2018-11-04T02:59:29.905Z,36.10
2018-11-04T03:01:58.349Z,38.63
2018-11-04T03:04:26.850Z,41.90
2018-11-04T03:06:55.340Z,39.23
2018-11-04T03:09:23.817Z,39.27
2018-11-04T03:11:52.200Z,40.63
2018-11-04T03:14:20.692Z,42.00
2018-11-04T03:16:49.106Z,38.40
2018-11-04T03:19:17.612Z,38.43
2018-11-04T03:21:46.018Z,38.33
2018-11-04T03:24:15.007Z,35.93
2018-11-04T03:26:43.388Z,36.77
2018-11-04T03:29:12.276Z,40.27
2018-11-04T03:31:40.658Z,39.83
2018-11-04T03:34:09.048Z,39.07
2018-11-04T03:36:38.009Z,41.33
2018-11-04T03:39:08.681Z,39.43
2018-11-04T03:41:37.110Z,38.53
2018-11-04T03:44:06.249Z,36.77
2018-11-04T03:46:35.147Z,40.50
2018-11-04T03:49:03.659Z,39.23
2018-11-04T03:51:33.009Z,38.57
2018-11-04T03:54:02.053Z,37.33
2018-11-04T03:56:30.495Z,40.80
2018-11-04T03:58:58.907Z,39.53
2018-11-04T04:01:27.703Z,38.53
2018-11-04T04:03:56.140Z,39.53
2018-11-04T04:06:24.553Z,34.93
2018-11-04T04:08:53.048Z,39.50
2018-11-04T04:11:21.399Z,34.93
2018-11-04T04:13:49.792Z,37.43
2018-11-04T04:16:18.160Z,35.50
2018-11-04T04:18:46.548Z,40.23
2018-11-04T04:21:14.921Z,39.90
2018-11-04T04:23:43.491Z,42.80
2018-11-04T04:26:12.386Z,35.97
2018-11-04T04:28:41.173Z,39.97
2018-11-04T04:31:09.617Z,36.63
2018-11-04T04:33:38.157Z,36.53
2018-11-04T04:36:06.750Z,38.03
2018-11-04T04:38:35.172Z,35.67
2018-11-04T04:41:03.587Z,35.47
2018-11-04T04:43:31.968Z,35.77
2018-11-04T04:46:00.408Z,38.00
2018-11-04T04:48:28.934Z,37.23
2018-11-04T04:50:57.324Z,36.43
2018-11-04T04:53:26.204Z,35.40
2018-11-04T04:55:56.215Z,37.97
2018-11-04T04:58:24.632Z,37.90
2018-11-04T05:00:53.904Z,39.83
2018-11-04T05:03:22.676Z,34.63
2018-11-04T05:05:51.201Z,36.77
2018-11-04T05:08:19.778Z,38.87
2018-11-04T05:10:48.541Z,37.43
2018-11-04T05:13:16.919Z,33.07
2018-11-04T05:15:45.316Z,37.57
2018-11-04T05:18:13.825Z,35.73
2018-11-04T05:20:42.357Z,38.07
2018-11-04T05:23:10.833Z,35.10
2018-11-04T05:25:39.229Z,35.53
2018-11-04T05:28:08.121Z,34.40
2018-11-04T05:30:36.500Z,37.53
2018-11-04T05:33:05.369Z,34.40
2018-11-04T05:35:33.733Z,35.47
2018-11-04T05:38:02.125Z,36.70
2018-11-04T05:40:30.632Z,38.10
2018-11-04T05:42:59.071Z,38.43
2018-11-04T05:45:27.467Z,38.53
2018-11-04T05:47:55.981Z,37.43
2018-11-04T05:50:24.900Z,39.27
2018-11-04T05:52:53.308Z,33.00
2018-11-04T05:55:21.689Z,33.33
2018-11-04T05:57:50.184Z,36.97
2018-11-04T06:00:18.624Z,39.40
2018-11-04T06:02:47.164Z,38.23
2018-11-04T06:05:15.672Z,37.07
2018-11-04T06:07:44.064Z,37.33
2018-11-04T06:10:12.446Z,38.73
2018-11-04T06:12:41.600Z,37.63
2018-11-04T06:15:10.395Z,34.83
2018-11-04T06:17:38.848Z,39.07
2018-11-04T06:20:10.437Z,36.77
2018-11-04T06:22:38.823Z,35.63
2018-11-04T06:25:07.507Z,38.37
2018-11-04T06:27:35.887Z,34.93
2018-11-04T06:30:06.117Z,33.43
2018-11-04T06:32:35.202Z,33.73
2018-11-04T06:35:03.643Z,35.77
2018-11-04T06:37:32.024Z,35.03
2018-11-04T06:40:00.553Z,35.47
2018-11-04T06:42:29.188Z,35.10
2018-11-04T06:44:57.593Z,35.93
2018-11-04T06:47:25.979Z,31.20
2018-11-04T06:49:54.452Z,36.83
2018-11-04T06:52:22.920Z,34.63
2018-11-04T06:54:51.316Z,37.40
2018-11-04T06:57:19.818Z,37.93
2018-11-04T06:59:48.230Z,35.37
2018-11-04T07:02:16.656Z,44.83
2018-11-04T07:04:45.032Z,32.50
2018-11-04T07:07:13.514Z,39.30
2018-11-04T07:09:41.872Z,35.47
2018-11-04T07:12:10.363Z,38.57
2018-11-04T07:14:38.736Z,33.63
2018-11-04T07:17:07.178Z,37.93
2018-11-04T07:19:35.692Z,36.87
2018-11-04T07:22:04.080Z,39.80
2018-11-04T07:24:32.624Z,36.67
2018-11-04T07:27:01.012Z,40.37
2018-11-04T07:29:29.528Z,40.77
2018-11-04T07:31:57.961Z,42.10
2018-11-04T07:34:26.340Z,36.80
2018-11-04T07:36:54.712Z,40.93
2018-11-04T07:39:23.421Z,38.77
2018-11-04T07:41:51.960Z,40.90
2018-11-04T07:44:20.552Z,41.27
2018-11-04T07:46:48.977Z,36.83
2018-11-04T07:49:17.481Z,37.13
2018-11-04T07:51:45.997Z,41.70
2018-11-04T07:54:14.644Z,38.60
2018-11-04T07:56:43.191Z,40.93
2018-11-04T07:59:11.608Z,44.60
2018-11-04T08:01:40.657Z,39.97
2018-11-04T08:04:09.152Z,42.17
2018-11-04T08:06:37.586Z,40.33
2018-11-04T08:09:07.932Z,40.90
2018-11-04T08:11:36.351Z,41.90
2018-11-04T08:14:05.017Z,44.70
2018-11-04T08:16:35.187Z,44.47
2018-11-04T08:19:03.597Z,45.10
2018-11-04T08:21:32.073Z,43.07
2018-11-04T08:24:00.540Z,42.43
2018-11-04T08:26:29.084Z,44.73
2018-11-04T08:28:57.611Z,40.60
2018-11-04T08:31:26.156Z,45.83
2018-11-04T08:33:54.528Z,45.37
2018-11-04T08:36:22.913Z,40.50
2018-11-04T08:38:51.454Z,44.03
2018-11-04T08:41:19.843Z,43.33
2018-11-04T08:43:48.229Z,42.30
2018-11-04T08:46:16.784Z,43.87
2018-11-04T08:48:45.343Z,42.73
2018-11-04T08:51:13.990Z,43.33
2018-11-04T08:53:42.527Z,44.40
2018-11-04T08:56:10.919Z,46.43
2018-11-04T08:58:39.321Z,43.20
2018-11-04T09:01:07.757Z,45.67
2018-11-04T09:03:36.264Z,46.02
2018-11-04T09:06:05.066Z,40.40
2018-11-04T09:08:33.433Z,41.97
2018-11-04T09:11:01.914Z,43.03
2018-11-04T09:13:30.514Z,43.57
2018-11-04T09:15:58.928Z,43.43
2018-11-04T09:18:27.341Z,44.63
2018-11-04T09:20:55.962Z,44.47
2018-11-04T09:23:24.960Z,42.93
2018-11-04T09:25:53.465Z,44.13
2018-11-04T09:28:21.905Z,42.93
2018-11-04T09:30:50.329Z,43.20
2018-11-04T09:33:18.720Z,39.47
2018-11-04T09:35:47.464Z,42.73
2018-11-04T09:38:15.797Z,41.63
2018-11-04T09:40:44.211Z,41.60
2018-11-04T09:43:12.659Z,39.23
2018-11-04T09:45:41.176Z,40.25
2018-11-04T09:48:09.908Z,40.93
2018-11-04T09:50:38.448Z,40.37
2018-11-04T09:53:06.945Z,39.53
2018-11-04T09:55:35.552Z,41.73
2018-11-04T09:58:04.064Z,41.28
2018-11-04T10:00:32.560Z,39.38
2018-11-04T10:03:01.241Z,40.90
2018-11-04T10:05:29.776Z,39.10
2018-11-04T10:07:58.264Z,41.13
2018-11-04T10:10:26.897Z,44.33
2018-11-04T10:12:56.239Z,45.58
2018-11-04T10:15:24.643Z,47.50
2018-11-04T10:17:53.076Z,45.57
2018-11-04T10:20:21.639Z,47.27
2018-11-04T10:22:49.970Z,42.50
2018-11-04T10:25:18.386Z,43.07
2018-11-04T10:27:46.794Z,42.17
2018-11-04T10:30:16.577Z,40.13
2018-11-04T10:32:45.215Z,42.00
2018-11-04T10:35:13.994Z,39.00
2018-11-04T10:37:43.099Z,36.98
2018-11-04T10:40:12.393Z,33.63
2018-11-04T10:42:40.817Z,32.90
2018-11-04T10:45:10.460Z,29.63
2018-11-04T10:47:38.957Z,30.97
2018-11-04T10:50:09.486Z,28.57
2018-11-04T10:52:38.190Z,29.45
2018-11-04T10:55:07.269Z,31.73
2018-11-04T10:57:35.692Z,30.52
2018-11-04T11:00:04.961Z,34.20
2018-11-04T11:02:33.528Z,34.53
2018-11-04T11:05:02.097Z,32.42
2018-11-04T11:08:11.496Z,32.58
2018-11-04T11:10:39.950Z,34.48
2018-11-04T11:13:08.568Z,31.35
2018-11-04T11:15:37.094Z,29.45
2018-11-04T11:18:05.813Z,27.87
2018-11-04T11:20:34.837Z,26.82
2018-11-04T11:23:03.355Z,29.27
2018-11-04T11:25:31.844Z,29.40
2018-11-04T11:28:00.332Z,25.52
2018-11-04T11:30:28.941Z,24.45
2018-11-04T11:32:57.352Z,24.52
2018-11-04T11:35:25.940Z,27.45
2018-11-04T11:37:55.143Z,30.02
2018-11-04T11:40:23.621Z,26.87
2018-11-04T11:42:52.036Z,25.48
2018-11-04T11:45:20.569Z,27.67
2018-11-04T11:47:49.071Z,27.77
2018-11-04T11:50:17.678Z,27.73
2018-11-04T11:52:46.514Z,24.85
2018-11-04T11:55:15.068Z,25.00
2018-11-04T11:57:43.661Z,24.27
2018-11-04T12:00:12.334Z,21.30
2018-11-04T12:02:41.137Z,24.37
2018-11-04T12:05:10.206Z,23.55
2018-11-04T12:07:39.155Z,25.62
2018-11-04T12:10:10.240Z,23.60
2018-11-04T12:12:38.797Z,23.77
2018-11-04T12:15:08.166Z,23.32
2018-11-04T12:17:36.617Z,21.60
2018-11-04T12:20:06.715Z,22.98
2018-11-04T12:22:35.164Z,21.35
2018-11-04T12:25:03.834Z,22.73
2018-11-04T12:27:32.376Z,20.27
2018-11-04T12:30:00.925Z,20.92
2018-11-04T12:32:29.468Z,21.73
2018-11-04T12:34:57.921Z,21.25
2018-11-04T12:37:26.306Z,19.05
2018-11-04T12:39:54.844Z,22.90
2018-11-04T12:42:23.611Z,22.35
2018-11-04T12:44:52.185Z,21.75
2018-11-04T12:47:20.593Z,24.02
2018-11-04T12:49:49.012Z,26.52
2018-11-04T12:52:17.488Z,23.65
2018-11-04T12:54:45.973Z,22.40
2018-11-04T12:57:14.549Z,23.32
2018-11-04T12:59:43.002Z,23.10
2018-11-04T13:02:11.293Z,22.55
2018-11-04T13:04:39.344Z,23.65
2018-11-04T13:07:07.711Z,23.77
2018-11-04T13:09:35.929Z,23.85
2018-11-04T13:12:04.299Z,26.48
2018-11-04T13:14:32.492Z,22.13
2018-11-04T13:17:00.662Z,23.87
2018-11-04T13:19:28.818Z,22.80
2018-11-04T13:21:57.004Z,22.90
2018-11-04T13:24:25.201Z,23.90
2018-11-04T13:26:53.496Z,21.50
2018-11-04T13:29:21.555Z,22.13
2018-11-04T13:31:49.697Z,25.88
2018-11-04T13:34:17.880Z,22.52
2018-11-04T13:36:46.063Z,22.82
2018-11-04T13:39:14.198Z,20.43
2018-11-04T13:41:42.347Z,23.05
2018-11-04T13:44:10.594Z,21.07
2018-11-04T13:46:38.748Z,20.60
2018-11-04T13:49:06.897Z,23.75
2018-11-04T13:51:35.046Z,21.25
2018-11-04T13:54:03.326Z,20.15
2018-11-04T13:56:31.473Z,22.77
2018-11-04T13:58:59.821Z,23.47
2018-11-04T14:01:27.980Z,21.23
2018-11-04T14:03:56.157Z,20.25
2018-11-04T14:06:24.298Z,20.65
2018-11-04T14:08:52.472Z,19.60
2018-11-04T14:11:20.598Z,23.02
2018-11-04T14:13:48.886Z,21.05
2018-11-04T14:16:17.230Z,22.22
2018-11-04T14:18:45.378Z,23.55
2018-11-04T14:21:13.520Z,21.12
2018-11-04T14:23:41.721Z,24.57
2018-11-04T14:26:09.919Z,22.98
2018-11-04T14:28:38.096Z,21.30
2018-11-04T14:31:06.403Z,21.42
2018-11-04T14:33:34.520Z,25.23
2018-11-04T14:36:03.645Z,25.10
2018-11-04T14:38:32.077Z,25.88
2018-11-04T14:41:00.636Z,22.73
2018-11-04T14:43:29.257Z,24.23
2018-11-04T14:45:58.012Z,24.70
2018-11-04T14:48:26.638Z,23.32
2018-11-04T14:50:55.077Z,22.77
2018-11-04T14:53:23.821Z,25.05
2018-11-04T14:55:52.487Z,25.10
2018-11-04T14:58:20.908Z,24.92
2018-11-04T15:00:49.368Z,22.32
2018-11-04T15:03:17.951Z,22.40
2018-11-04T15:05:46.436Z,22.93
2018-11-04T15:08:15.000Z,23.62
2018-11-04T15:10:43.419Z,23.10
2018-11-04T15:13:11.961Z,23.75
2018-11-04T15:15:40.369Z,21.50
2018-11-04T15:18:08.921Z,23.35
2018-11-04T15:20:37.420Z,23.62
2018-11-04T15:23:06.110Z,26.00
2018-11-04T15:25:34.569Z,24.30
2018-11-04T15:28:03.431Z,26.35
2018-11-04T15:30:31.933Z,26.05
2018-11-04T15:33:00.407Z,25.92
2018-11-04T15:35:29.033Z,25.57
2018-11-04T15:37:57.719Z,26.82
2018-11-04T15:40:26.358Z,25.70
2018-11-04T15:42:54.872Z,25.85
2018-11-04T15:45:23.410Z,26.48
2018-11-04T15:47:51.904Z,28.92
2018-11-04T15:50:20.396Z,25.02
2018-11-04T15:52:49.447Z,28.38
2018-11-04T15:55:19.064Z,31.77
2018-11-04T15:57:47.592Z,29.00
2018-11-04T16:00:16.317Z,27.13
2018-11-04T16:02:44.899Z,30.27
2018-11-04T16:05:13.489Z,30.92
2018-11-04T16:07:42.018Z,32.80
2018-11-04T16:10:11.769Z,29.02
2018-11-04T16:12:40.261Z,31.30
2018-11-04T16:15:11.397Z,28.35
2018-11-04T16:17:40.593Z,29.65
2018-11-04T16:20:10.932Z,30.08
2018-11-04T16:22:40.197Z,31.70
2018-11-04T16:25:09.014Z,34.03
2018-11-04T16:27:38.082Z,35.55
2018-11-04T16:30:08.132Z,32.23
2018-11-04T16:32:38.136Z,31.02
2018-11-04T16:35:07.836Z,34.15
2018-11-04T16:37:36.997Z,31.33
2018-11-04T16:40:05.995Z,33.70
2018-11-04T16:42:34.509Z,29.98
2018-11-04T16:45:03.552Z,31.42
2018-11-04T16:47:31.981Z,35.38
2018-11-04T16:50:00.629Z,33.13
2018-11-04T16:52:29.110Z,32.73
2018-11-04T16:54:57.669Z,36.20
2018-11-04T16:57:26.198Z,34.98
2018-11-04T16:59:54.646Z,31.52
2018-11-04T17:02:23.506Z,32.17
2018-11-04T17:04:51.987Z,32.28
2018-11-04T17:07:20.763Z,34.90
2018-11-04T17:09:49.237Z,33.05
2018-11-04T17:12:17.686Z,29.75
2018-11-04T17:14:46.105Z,32.23
2018-11-04T17:17:14.711Z,30.92
2018-11-04T17:19:43.485Z,31.45
2018-11-04T17:22:12.404Z,32.85
2018-11-04T17:24:40.953Z,31.23
2018-11-04T17:27:09.540Z,30.62
2018-11-04T17:29:38.109Z,31.35
2018-11-04T17:32:06.612Z,31.60
2018-11-04T17:34:35.201Z,34.03
2018-11-04T17:37:03.667Z,32.88
2018-11-04T17:39:32.258Z,32.93
2018-11-04T17:42:00.741Z,33.10
2018-11-04T17:44:29.210Z,32.38
2018-11-04T17:46:57.737Z,33.73
2018-11-04T17:49:26.140Z,34.43
2018-11-04T17:51:54.829Z,34.90
2018-11-04T17:54:23.356Z,34.60
2018-11-04T17:56:52.355Z,35.55
2018-11-04T17:59:20.913Z,35.45
2018-11-04T18:01:49.464Z,35.48
2018-11-04T18:04:18.519Z,35.38
2018-11-04T18:06:46.975Z,34.33
2018-11-04T18:09:15.410Z,34.27
2018-11-04T18:11:43.939Z,35.17
2018-11-04T18:14:12.388Z,35.15
2018-11-04T18:16:41.470Z,34.48
2018-11-04T18:19:10.088Z,33.65
2018-11-04T18:21:38.715Z,34.65
2018-11-04T18:24:07.286Z,37.40
2018-11-04T18:26:35.813Z,36.70
2018-11-04T18:29:04.342Z,34.67
2018-11-04T18:31:32.878Z,35.60
2018-11-04T18:34:01.935Z,34.65
2018-11-04T18:36:30.528Z,36.98
2018-11-04T18:38:59.123Z,35.95
2018-11-04T18:41:27.534Z,36.80
2018-11-04T18:43:56.228Z,32.98
2018-11-04T18:46:24.590Z,35.92
2018-11-04T18:48:53.641Z,36.28
2018-11-04T18:51:22.213Z,34.58
2018-11-04T18:53:50.640Z,38.33
2018-11-04T18:56:19.782Z,34.15
2018-11-04T18:58:48.549Z,36.50
2018-11-04T19:01:17.151Z,36.88
2018-11-04T19:03:45.774Z,35.85
2018-11-04T19:06:14.366Z,33.48
2018-11-04T19:08:42.885Z,32.83
2018-11-04T19:11:11.424Z,35.23
2018-11-04T19:13:40.005Z,35.40
2018-11-04T19:16:08.605Z,36.05
2018-11-04T19:18:37.225Z,35.40
2018-11-04T19:21:05.940Z,32.23
2018-11-04T19:23:35.045Z,35.45
2018-11-04T19:26:03.743Z,34.03
2018-11-04T19:28:32.310Z,37.23
2018-11-04T19:31:00.768Z,33.00
2018-11-04T19:33:29.277Z,37.25
2018-11-04T19:35:57.716Z,32.75
2018-11-04T19:38:26.336Z,34.13
2018-11-04T19:40:54.774Z,34.27
2018-11-04T19:43:23.249Z,36.98
2018-11-04T19:45:52.593Z,33.30
2018-11-04T19:48:21.328Z,34.50
2018-11-04T19:50:49.828Z,32.90
2018-11-04T19:53:18.464Z,30.57
2018-11-04T19:55:47.031Z,35.10
2018-11-04T19:58:15.507Z,33.85
2018-11-04T20:00:44.017Z,31.40
2018-11-04T20:03:12.789Z,30.85
2018-11-04T20:05:42.541Z,31.17
2018-11-04T20:08:11.550Z,34.48
2018-11-04T20:10:40.028Z,39.25
2018-11-04T20:13:14.019Z,33.30
2018-11-04T20:15:42.564Z,32.10
2018-11-04T20:18:16.383Z,30.88
2018-11-04T20:20:45.595Z,30.25
2018-11-04T20:23:14.171Z,33.08
2018-11-04T20:25:48.262Z,33.42
2018-11-04T20:28:16.759Z,31.42
2018-11-04T20:30:45.320Z,27.82
2018-11-04T20:33:15.518Z,31.93
2018-11-04T20:35:44.108Z,31.70
2018-11-04T20:38:12.553Z,32.67
2018-11-04T20:40:46.483Z,34.83
2018-11-04T20:43:15.779Z,31.70
2018-11-04T20:45:44.328Z,31.55
2018-11-04T20:48:18.393Z,34.55
2018-11-04T20:50:52.288Z,35.03
2018-11-04T20:53:20.810Z,34.27
2018-11-04T20:55:54.734Z,33.98
2018-11-04T20:58:23.353Z,34.88
2018-11-04T21:00:51.609Z,31.23
2018-11-04T21:03:20.157Z,34.00
2018-11-04T21:05:48.740Z,33.18
2018-11-04T21:08:17.532Z,32.15
2018-11-04T21:10:46.058Z,27.40
2018-11-04T21:13:14.518Z,27.37
2018-11-04T21:15:43.112Z,29.40
2018-11-04T21:18:11.691Z,28.32
2018-11-04T21:20:40.297Z,28.95
2018-11-04T21:23:08.842Z,27.93
2018-11-04T21:25:37.422Z,26.75
2018-11-04T21:28:05.992Z,25.23
2018-11-04T21:30:34.489Z,27.85
2018-11-04T21:33:03.003Z,26.82
2018-11-04T21:35:31.541Z,26.23
2018-11-04T21:38:00.021Z,23.27
2018-11-04T21:40:28.506Z,26.75
2018-11-04T21:42:56.979Z,23.55
2018-11-04T21:45:25.465Z,24.40
2018-11-04T21:47:53.879Z,24.60
2018-11-04T21:50:28.983Z,23.62
2018-11-04T21:52:57.412Z,23.57
2018-11-04T21:55:26.227Z,23.00
2018-11-04T21:57:55.019Z,24.20
2018-11-04T22:00:23.688Z,25.37
2018-11-04T22:02:52.397Z,23.20
2018-11-04T22:05:20.655Z,22.42
2018-11-04T22:07:49.186Z,23.95
2018-11-04T22:10:17.719Z,22.58
2018-11-04T22:12:46.124Z,23.20
2018-11-04T22:15:14.625Z,24.20
2018-11-04T22:17:43.132Z,24.70
2018-11-04T22:20:12.745Z,22.87
2018-11-04T22:22:41.225Z,34.55
2018-11-04T22:25:11.120Z,22.45
2018-11-04T22:27:39.624Z,22.48
2018-11-04T22:30:09.421Z,20.85
2018-11-04T22:32:38.462Z,21.65
2018-11-04T22:35:08.036Z,21.27
2018-11-04T22:37:36.801Z,20.45
2018-11-04T22:40:06.533Z,20.20
2018-11-04T22:42:34.945Z,19.60
2018-11-04T22:45:04.101Z,20.15
2018-11-04T22:47:32.630Z,20.72
2018-11-04T22:50:01.053Z,20.52
2018-11-04T22:52:29.462Z,21.12
2018-11-04T22:54:57.851Z,21.40
2018-11-04T22:57:26.234Z,20.48
2018-11-04T22:59:54.607Z,22.17
2018-11-04T23:02:23.052Z,21.75
2018-11-04T23:04:57.026Z,20.02
2018-11-04T23:07:25.419Z,19.98
2018-11-04T23:09:53.818Z,21.02
2018-11-04T23:12:22.240Z,19.85
2018-11-04T23:14:50.713Z,20.68
2018-11-04T23:17:19.279Z,21.42
2018-11-04T23:19:47.673Z,22.37
2018-11-04T23:22:16.085Z,21.05
2018-11-04T23:24:44.461Z,19.52
2018-11-04T23:27:13.055Z,23.52
2018-11-04T23:29:41.416Z,20.95
2018-11-04T23:32:09.929Z,25.12
2018-11-04T23:34:38.332Z,20.40
2018-11-04T23:37:07.107Z,21.30
2018-11-04T23:39:35.494Z,21.33
2018-11-04T23:42:04.049Z,21.75
2018-11-04T23:44:32.492Z,19.00
2018-11-04T23:47:00.891Z,21.17
2018-11-04T23:49:29.412Z,20.72
2018-11-04T23:51:57.809Z,21.60
2018-11-04T23:54:26.804Z,23.10
2018-11-04T23:56:55.190Z,21.37
2018-11-04T23:59:23.689Z,23.18
